createdAt,value
2023-10-15T00:04:29.344Z,11.48
2023-10-15T00:09:31.994Z,11.44
2023-10-15T00:14:33.759Z,11.39
2023-10-15T00:19:35.670Z,11.37
2023-10-15T00:24:39.081Z,11.33
2023-10-15T00:29:40.844Z,11.29
2023-10-15T00:34:42.649Z,11.27
2023-10-15T00:39:44.488Z,11.26
2023-10-15T00:44:46.924Z,11.28
2023-10-15T00:49:49.429Z,11.25
2023-10-15T00:54:51.724Z,11.18
2023-10-15T00:59:56.361Z,11.12
2023-10-15T01:05:01.606Z,11.06
2023-10-15T01:10:04.633Z,11.05
2023-10-15T01:15:08.377Z,11.05
2023-10-15T01:20:11.106Z,10.99
2023-10-15T01:25:33.886Z,10.85
2023-10-15T01:30:37.326Z,10.73
2023-10-15T01:35:39.868Z,10.69
2023-10-15T01:40:45.754Z,10.60
2023-10-15T01:45:48.645Z,10.47
2023-10-15T01:50:53.479Z,10.43
2023-10-15T01:56:00.716Z,10.41
2023-10-15T02:01:32.951Z,10.41
2023-10-15T02:06:44.202Z,10.38
2023-10-15T02:11:49.160Z,10.33
2023-10-15T02:16:51.459Z,10.24
2023-10-15T02:21:53.360Z,10.15
2023-10-15T02:26:55.186Z,10.06
2023-10-15T02:31:59.826Z,10.01
2023-10-15T02:37:05.633Z,9.96
2023-10-15T02:42:07.504Z,9.86
2023-10-15T02:47:30.057Z,9.73
2023-10-15T02:52:47.703Z,9.61
2023-10-15T02:57:53.113Z,9.56
2023-10-15T03:02:59.082Z,9.50
2023-10-15T03:08:01.111Z,9.38
2023-10-15T03:13:03.408Z,9.22
2023-10-15T03:18:05.449Z,9.04
2023-10-15T03:23:07.420Z,8.87
2023-10-15T03:28:12.879Z,8.69
2023-10-15T03:33:15.172Z,8.53
2023-10-15T03:38:24.665Z,8.40
2023-10-15T03:43:30.842Z,8.31
2023-10-15T03:48:40.643Z,8.25
2023-10-15T03:53:43.228Z,8.16
2023-10-15T03:58:46.012Z,8.08
2023-10-15T04:03:49.350Z,8.01
2023-10-15T04:09:03.670Z,8.02
2023-10-15T04:14:15.797Z,8.04
2023-10-15T04:19:19.588Z,8.06
2023-10-15T04:24:41.850Z,7.97
2023-10-15T04:29:56.170Z,7.87
2023-10-15T04:35:09.927Z,7.87
2023-10-15T04:40:19.065Z,7.92
2023-10-15T04:45:25.421Z,7.93
2023-10-15T04:50:30.958Z,7.90
2023-10-15T04:55:32.920Z,7.79
2023-10-15T05:00:36.779Z,7.64
2023-10-15T05:05:38.937Z,7.53
2023-10-15T05:10:52.408Z,7.48
2023-10-15T05:15:54.561Z,7.43
2023-10-15T05:20:56.474Z,7.44
2023-10-15T05:25:58.384Z,7.50
2023-10-15T05:31:01.961Z,7.62
2023-10-15T05:36:05.201Z,7.76
2023-10-15T05:41:08.197Z,7.87
2023-10-15T05:46:10.345Z,7.95
2023-10-15T05:51:12.155Z,8.06
2023-10-15T05:56:14.799Z,8.22
2023-10-15T06:01:17.014Z,8.31
2023-10-15T06:06:18.969Z,8.42
2023-10-15T06:11:20.762Z,8.54
2023-10-15T06:16:22.993Z,8.70
2023-10-15T06:21:25.604Z,8.88
2023-10-15T06:26:28.475Z,9.46
2023-10-15T06:31:31.851Z,10.86
2023-10-15T06:36:34.688Z,12.56
2023-10-15T06:41:37.890Z,14.25
2023-10-15T06:46:40.283Z,15.66
2023-10-15T06:51:43.515Z,16.90
2023-10-15T06:56:45.695Z,17.88
2023-10-15T07:01:47.508Z,18.57
2023-10-15T07:06:50.754Z,19.29
2023-10-15T07:11:52.560Z,19.87
2023-10-15T07:16:54.398Z,20.33
2023-10-15T07:21:57.123Z,20.72
2023-10-15T07:26:59.431Z,21.12
2023-10-15T07:32:01.351Z,21.49
2023-10-15T07:37:03.231Z,21.50
2023-10-15T07:42:08.200Z,21.50
2023-10-15T07:47:10.322Z,21.53
2023-10-15T07:52:12.229Z,21.56
2023-10-15T07:57:15.455Z,21.90
2023-10-15T08:02:17.421Z,21.85
2023-10-15T08:07:19.668Z,21.91
2023-10-15T08:12:21.577Z,22.16
2023-10-15T08:17:27.775Z,22.02
2023-10-15T08:22:29.782Z,21.98
2023-10-15T08:27:31.783Z,21.89
2023-10-15T08:32:33.600Z,21.70
2023-10-15T08:37:36.595Z,21.65
2023-10-15T08:42:44.141Z,21.02
2023-10-15T08:47:48.414Z,20.58
2023-10-15T08:52:54.561Z,20.38
2023-10-15T08:57:58.256Z,20.08
2023-10-15T09:03:02.568Z,19.21
2023-10-15T09:08:09.482Z,18.26
2023-10-15T09:13:16.507Z,17.33
2023-10-15T09:18:19.316Z,16.60
2023-10-15T09:23:24.962Z,15.90
2023-10-15T09:28:30.221Z,15.36
2023-10-15T09:33:33.656Z,15.19
2023-10-15T09:38:36.752Z,15.15
2023-10-15T09:43:39.126Z,15.03
2023-10-15T09:48:43.600Z,14.87
2023-10-15T09:53:47.524Z,14.70
2023-10-15T09:58:49.375Z,14.54
2023-10-15T10:04:15.860Z,14.23
2023-10-15T10:09:39.741Z,13.88
2023-10-15T10:15:16.931Z,13.84
2023-10-15T10:20:21.063Z,13.63
2023-10-15T10:25:33.883Z,13.34
2023-10-15T10:30:37.655Z,13.25
2023-10-15T10:35:44.633Z,13.18
2023-10-15T10:40:49.546Z,13.03
2023-10-15T10:46:04.204Z,12.90
2023-10-15T10:51:19.795Z,12.68
2023-10-15T10:56:21.581Z,12.81
2023-10-15T11:01:23.371Z,13.19
2023-10-15T11:06:25.221Z,13.66
2023-10-15T11:11:27.117Z,14.06
2023-10-15T11:16:33.297Z,14.35
2023-10-15T11:21:41.649Z,14.44
2023-10-15T11:26:45.949Z,14.31
2023-10-15T11:31:49.462Z,13.93
2023-10-15T11:36:58.917Z,13.66
2023-10-15T11:42:03.822Z,13.49
2023-10-15T11:47:13.457Z,13.42
2023-10-15T11:52:19.985Z,13.41
2023-10-15T11:57:26.670Z,13.39
2023-10-15T12:02:30.350Z,13.40
2023-10-15T12:07:33.432Z,13.46
2023-10-15T12:12:35.333Z,13.52
2023-10-15T12:17:37.259Z,13.44
2023-10-15T12:22:39.778Z,13.36
2023-10-15T12:27:41.639Z,13.22
2023-10-15T12:32:47.360Z,13.04
2023-10-15T12:37:59.720Z,12.92
2023-10-15T12:43:09.624Z,12.81
2023-10-15T12:48:12.126Z,12.64
2023-10-15T12:53:15.097Z,12.43
2023-10-15T12:58:17.239Z,12.29
2023-10-15T13:03:19.504Z,12.19
2023-10-15T13:08:21.419Z,12.09
2023-10-15T13:13:23.315Z,12.00
2023-10-15T13:18:25.191Z,11.88
2023-10-15T13:23:30.490Z,11.77
2023-10-15T13:28:33.704Z,11.68
2023-10-15T13:33:37.981Z,11.67
2023-10-15T13:38:40.164Z,11.73
2023-10-15T13:43:42.235Z,11.75
2023-10-15T13:48:45.537Z,11.76
2023-10-15T13:53:47.918Z,11.79
2023-10-15T13:58:50.084Z,11.86
2023-10-15T14:03:56.058Z,11.92
2023-10-15T14:08:58.329Z,11.97
2023-10-15T14:14:00.380Z,12.10
2023-10-15T14:19:02.278Z,12.24
2023-10-15T14:24:11.467Z,12.31
2023-10-15T14:29:13.388Z,12.26
2023-10-15T14:34:15.245Z,12.11
2023-10-15T14:39:23.799Z,11.96
2023-10-15T14:44:26.038Z,11.82
2023-10-15T14:49:28.521Z,11.66
2023-10-15T14:54:30.774Z,11.50
2023-10-15T14:59:32.653Z,11.35
2023-10-15T15:04:34.709Z,11.19
2023-10-15T15:09:36.943Z,11.03
2023-10-15T15:14:39.003Z,10.90
2023-10-15T15:19:40.811Z,10.78
2023-10-15T15:24:42.752Z,10.67
2023-10-15T15:29:46.342Z,10.56
2023-10-15T15:34:50.420Z,10.42
2023-10-15T15:39:52.305Z,10.29
2023-10-15T15:44:54.662Z,10.13
2023-10-15T15:49:56.814Z,9.96
2023-10-15T15:54:59.651Z,9.81
2023-10-15T16:00:01.461Z,9.64
2023-10-15T16:05:15.822Z,9.47
2023-10-15T16:10:18.538Z,9.29
2023-10-15T16:15:24.184Z,9.09
2023-10-15T16:20:26.028Z,8.89
2023-10-15T16:25:27.953Z,8.73
2023-10-15T16:30:29.840Z,8.62
2023-10-15T16:35:32.742Z,8.54
2023-10-15T16:40:34.822Z,8.49
2023-10-15T16:45:38.650Z,8.47
2023-10-15T16:50:42.378Z,8.42
2023-10-15T16:55:44.894Z,8.38
2023-10-15T17:00:47.372Z,8.34
2023-10-15T17:05:49.571Z,8.26
2023-10-15T17:10:52.063Z,8.15
2023-10-15T17:15:53.970Z,8.05
2023-10-15T17:20:57.198Z,7.98
2023-10-15T17:25:59.048Z,7.93
2023-10-15T17:31:01.156Z,7.84
2023-10-15T17:36:03.407Z,7.80
2023-10-15T17:41:05.481Z,7.88
2023-10-15T17:46:07.560Z,8.00
2023-10-15T17:51:11.625Z,8.11
2023-10-15T17:56:13.908Z,8.19
2023-10-15T18:01:16.128Z,8.28
2023-10-15T18:06:20.586Z,8.30
2023-10-15T18:11:23.039Z,8.29
2023-10-15T18:16:24.997Z,8.26
2023-10-15T18:21:28.068Z,8.19
2023-10-15T18:26:30.043Z,8.14
2023-10-15T18:31:32.230Z,8.12
2023-10-15T18:36:34.459Z,8.10
2023-10-15T18:41:36.282Z,8.02
2023-10-15T18:46:38.077Z,7.94
2023-10-15T18:51:41.496Z,7.85
2023-10-15T18:56:43.579Z,7.78
2023-10-15T19:01:45.492Z,7.74
2023-10-15T19:06:48.044Z,7.73
2023-10-15T19:11:50.894Z,7.74
2023-10-15T19:16:53.708Z,7.67
2023-10-15T19:21:55.833Z,7.55
2023-10-15T19:26:57.666Z,7.38
2023-10-15T19:31:59.614Z,7.23
2023-10-15T19:37:01.851Z,7.13
2023-10-15T19:42:04.399Z,7.12
2023-10-15T19:47:07.641Z,7.19
2023-10-15T19:52:10.835Z,7.23
2023-10-15T19:57:12.871Z,7.20
2023-10-15T20:02:14.844Z,7.10
2023-10-15T20:07:16.891Z,6.98
2023-10-15T20:12:19.003Z,6.89
2023-10-15T20:17:21.110Z,6.81
2023-10-15T20:22:22.912Z,6.76
2023-10-15T20:27:24.899Z,6.75
2023-10-15T20:32:39.532Z,6.77
2023-10-15T20:37:49.491Z,6.85
2023-10-15T20:42:51.413Z,6.94
2023-10-15T20:47:54.790Z,7.02
2023-10-15T20:52:59.584Z,7.07
2023-10-15T20:58:03.244Z,7.11
2023-10-15T21:03:07.107Z,7.15
2023-10-15T21:08:11.977Z,7.14
2023-10-15T21:13:14.513Z,7.07
2023-10-15T21:18:16.976Z,6.98
2023-10-15T21:23:19.510Z,6.97
2023-10-15T21:28:27.868Z,7.00
2023-10-15T21:33:29.695Z,7.00
2023-10-15T21:38:31.759Z,6.96
2023-10-15T21:43:33.513Z,6.96
2023-10-15T21:48:36.270Z,7.00
2023-10-15T21:53:38.320Z,7.04
2023-10-15T21:58:40.122Z,7.06
2023-10-15T22:03:42.257Z,7.14
2023-10-15T22:08:45.090Z,7.21
2023-10-15T22:13:56.407Z,7.25
2023-10-15T22:18:58.934Z,7.27
2023-10-15T22:24:02.089Z,7.29
2023-10-15T22:29:07.816Z,7.28
2023-10-15T22:34:09.903Z,7.21
2023-10-15T22:39:11.741Z,7.11
2023-10-15T22:44:13.630Z,6.98
2023-10-15T22:49:20.729Z,6.91
2023-10-15T22:54:22.791Z,6.88
2023-10-15T22:59:28.889Z,6.82
2023-10-15T23:04:31.005Z,6.82
2023-10-15T23:09:32.926Z,6.82
2023-10-15T23:14:35.862Z,6.80
2023-10-15T23:19:41.702Z,6.77
2023-10-15T23:24:44.246Z,6.72
2023-10-15T23:29:46.133Z,6.64
2023-10-15T23:34:48.736Z,6.52
2023-10-15T23:39:50.636Z,6.37
2023-10-15T23:44:52.509Z,6.25
2023-10-15T23:49:54.327Z,6.15
2023-10-15T23:55:01.254Z,6.04
